Aviation Digital Data Service (ADDS)

Output produced by METARs form (1646 UTC 20 January 2019)
found at http://www.aviationweather.gov/metar/data/
 
TAF FNBG 201045Z 2012/2024 33011KT 9999 FEW018 
     TEMPO 2014/2018 27008KT FEW015 SCT020 FEW023TCU
       
FNCA 201600Z 33008KT 9999 BKN030 FEW032TCU SCT062 26/18 Q1016
TAF FNCA 201045Z 2012/2024 25005KT 9000 FEW016 
     TEMPO 2014/2018 VRB03KT 6000 -TSRA SCT010 BKN020 FEW025CB 
     BECMG 2020/2022 19006KT 8000 FEW020CB BKN025
       
TAF FNDU 201045Z 2012/2024 VRB03KT 9999 FEW020 
     TEMPO 2014/2018 07005KT TS FEW018 SCT022 FEW025CB
       
FNHU 201600Z 27009KT 9999 VCSH BKN024 24/18 Q1019
TAF FNHU 201045Z 2012/2024 24005KT 9999 SCT017 
     TEMPO 2014/2018 VRB03KT 4000 -TSRA FEW018 BKN022 FEW025CB 
     BECMG 2020/2022 18006KT 8000 NSW SCT018 BKN025
       
FNKU 201500Z 00000KT 9999 BKN040 FEW040CB 25/22 Q1017
TAF FNKU 201045Z 2012/2024 30010KT 9999 BKN030 
     TEMPO 2014/2018 26006KT FEW022CB BKN025
       
FNLU 201600Z 24012KT 9999 FEW022 29/23 Q1010 NOSIG
TAF FNLU 201050Z 2012/2118 27008KT 9999 FEW023 BKN025 
     TEMPO 2013/2017 24010KT SCT022 FEW025TCU 
     BECMG 2020/2022 19006KT FEW022 SCT025 
     TEMPO 2023/2103 VRB03KT 8000 FEW020 BKN030
       
FNUE 201500Z 22008KT 9999 BKN030 FEW031TCU 26/19 Q1016
TAF FNUE 201045Z 2012/2024 28007KT 9999 SCT030 BKN050 
     TEMPO 2014/2018 VRB03KT TS SCT020 BKN025 FEW030CB
       
FNMA 201600Z 11006KT 9999 SCT017 BKN100 26/23 Q1013
TAF FNMA 201045Z 2012/2024 34010KT 9999 SCT015 BKN050 
     TEMPO 2014/2018 28006KT SCT018 BKN030 FEW035TCU
       
TAF FNME 201045Z 2012/2024 15005KT 9000 SCT020 BKN030 
     TEMPO 2014/2018 VRB03KT 3000 TSRA BKN022 FEW025CB 
     BECMG 2020/2022 21005KT 8000 NSW
       
FNMO 201500Z 29010KT 9999 SCT017 BKN020 28/22 Q1011
TAF FNMO 201045Z 2012/2024 32012KT CAVOK 
     TEMPO 2014/2018 26010KT 9999 FEW020
       
FNGI 201600Z VRB02KT 9999 TS FEW016 FEW030CB 32/18 Q1013
TAF FNGI 201045Z 2012/2024 VRB02KT 9999 FEW015 
     TEMPO 2014/2018 07005KT 7000 -RADZ SCT015 FEW020CB
       
FNSA 201500Z 27006KT CAVOK 27/19 Q1017
TAF FNSA 201045Z 2012/2024 35005KT 9999 BKN030 
     TEMPO 2014/2018 VRB03KT 4000 TSRA BKN022 FEW025CB 
     BECMG 2020/2022 04005KT 8000 NSW SCT018 BKN025
       
FNSO 201500Z 20006KT 9000 BKN014 SCT060 ///// Q////
TAF FNSO 201045Z 2012/2024 19010KT 9000 SCT030 
     TEMPO 2013/2017 VRB03KT 4000 TSRA SCT018 FEW022CB BKN030
       
FNSU 201600Z 21009KT 9999 FEW015 SCT060 28/// Q1012
FNUG 201600Z 27006KT 9999 FEW022 28/20 Q1013